Terminal Aerodrome Forecast
Issued by NWS Jacksonville, FL

Home | Current Version | Previous Version | Text Only | Print | Product List | Glossary On
Versions: 1 2 3 4 5 6 7 8 9 10 11 12 13 14 15 16 17
000
FTUS42 KJAX 111100
TAFJAX
TAF
KJAX 111120Z 1112/1212 00000KT P6SM FEW030 BKN250
     FM111500 22004KT P6SM SCT035 BKN250
     FM111700 14008KT P6SM VCTS SCT040CB BKN250
      TEMPO 1119/1123 3SM TSRA BKN035CB
     FM120300 15002KT P6SM BKN250=

USA.gov is the U.S. government's official web portal to all federal, state and local government web resources and services.